Hub


Voltar

 INFORMAÇÕES METEOROLÓGICAS

METAR FOR GCLP


ADDS - METARS form results

(1254 UTC 26 April 2019)
Data provider http://aviationweather.gov/metar/data/
 
METAR text: GCLP 261230Z 01021G31KT 9999 FEW040 22/11 Q1021 NOSIG
Conditions at: GCLP (LAS PALMAS/GANDO, ES) observed 1230 UTC 26 April 2019
Temperature: 22.0°C (72°F)
Dewpoint: 11.0°C (52°F) [RH = 50%]
Pressure (altimeter): 30.15 inches Hg (1021.0 mb)
Winds: from the N (10 degrees) at 24 MPH (21 knots; 10.8 m/s)
gusting to 36 MPH (31 knots; 15.9 m/s)
Visibility: 6 or more miles (10+ km)
Ceiling: at least 12,000 feet AGL
Clouds: few clouds at 4000 feet AGL
Weather: no significant weather observed at this time

METAR text: GCLP 261200Z 36017KT 320V030 9999 FEW040 22/10 Q1021 NOSIG
Conditions at: GCLP (LAS PALMAS/GANDO, ES) observed 1200 UTC 26 April 2019
Temperature: 22.0°C (72°F)
Dewpoint: 10.0°C (50°F) [RH = 46%]
Pressure (altimeter): 30.15 inches Hg (1021.0 mb)
Winds: from the N (360 degrees) at 20 MPH (17 knots; 8.7 m/s)
Visibility: 6 or more miles (10+ km)
Ceiling: at least 12,000 feet AGL
Clouds: few clouds at 4000 feet AGL
Weather: no significant weather observed at this time

Forecast for: GCLP (LAS PALMAS/GANDO, ES)
Text: TAF GCLP 260800Z 2609/2709 02023KT 9999 SCT030 TX23/2614Z TN17/2705Z
Forecast period: 0900 UTC 26 April 2019 to 0900 UTC 27 April 2019
Forecast type: FROM: standard forecast or significant change
Winds: from the NNE (20 degrees) at 26 MPH (23 knots; 11.8 m/s)
Visibility: 6 or more miles 10+ km)
Ceiling: at least 12,000 feet AGL
Clouds: scattered clouds at 3000 feet AGL
Weather: no significant weather forecast for this period
Text: PROB40
Forecast period: 1500 to 1800 UTC 26 April 2019
Forecast type: TEMPORARY: The following changes expected for less than half the time period
Winds: from the NNE (20 degrees) at 26 MPH (23 knots; 11.8 m/s)
gusting to 38 MPH (33 knots; 17.0 m/s)
Visibility: missing
Ceiling: unknown
Clouds: missing
Weather: no significant weather forecast for this period


 MAPA DO AEROPORTO


 INFORMAÇÕES DA PISTA

Pista 03L Tamanho da pista 10171 ft Largura da pista 148 ft
Elevação da pista 78 ft Ranhura da pista 0 ft Proa da pista 22
Pista 21R Tamanho da pista 10171 ft Largura da pista 148 ft
Elevação da pista 33 ft Ranhura da pista 0 ft Proa da pista 202
Pista 03R Tamanho da pista 10171 ft Largura da pista 148 ft
Elevação da pista 69 ft Ranhura da pista 0 ft Proa da pista 22
Pista 21L Tamanho da pista 10171 ft Largura da pista 148 ft
Elevação da pista 27 ft Ranhura da pista 0 ft Proa da pista 202

 FREQUÊNCIAS DO AEROPORTO

Tipo APP Nome APP Frequência 120.9 MHZ
Tipo ATIS Nome ATIS Frequência 118.6 MHZ
Tipo GND Nome GND Frequência 121.7 MHZ
Tipo TWR Nome TWR Frequência 118.3 MHZ

 AUXÍLIOS DE NAVEGAÇÃO PRÓXIMOS AO AEROPORTO

Tipo VOR-DME Nome Gran Canaria Frequência 112900 KHZ
Tipo VOR-DME Nome Gran Canaria Frequência 115000 KHZ
Tipo TACAN Nome Gran Canaria Frequência 115600 KHZ
Tipo NDB Nome Gran Canaria Frequência 365 KHZ